Time;durP1;ratioP1;P1;durP2;ratioP2;P2;SDS_P1;SDS_P2;PMS_P1;PMS_P2;Temp;Humidity;BMP_temperature;BMP_pressure;BME280_temperature;BME280_humidity;BME280_pressure;Samples;Min_cycle;Max_cycle;Signal;HPM_P1;HPM_P2
2024/03/26 00:01:07;;;;;;;6.25;3.75;;;5.80;99.90;;;;;;7368235;19;20035;-63
2024/03/26 00:03:33;;;;;;;12.15;4.18;;;5.70;99.90;;;;;;7366060;19;20018;-58
2024/03/26 00:05:59;;;;;;;12.23;3.72;;;5.70;99.90;;;;;;7369723;19;20042;-57
2024/03/26 00:08:25;;;;;;;11.27;5.38;;;5.70;99.90;;;;;;7366235;19;20048;-59
2024/03/26 00:10:51;;;;;;;7.50;3.10;;;5.70;99.90;;;;;;7367725;19;20852;-58
2024/03/26 00:13:18;;;;;;;9.43;3.78;;;5.70;99.90;;;;;;7371995;19;20449;-63
2024/03/26 00:15:44;;;;;;;8.20;3.20;;;5.70;99.90;;;;;;7366131;19;20033;-64
2024/03/26 00:18:11;;;;;;;7.85;3.38;;;5.70;99.90;;;;;;7375449;19;20078;-63
2024/03/26 00:20:38;;;;;;;11.20;4.10;;;5.70;99.90;;;;;;7370329;19;20101;-64
2024/03/26 00:23:07;;;;;;;11.15;3.40;;;5.70;99.90;;;;;;7376262;19;20047;-63
2024/03/26 00:25:33;;;;;;;8.45;3.35;;;5.70;99.90;;;;;;7375655;19;20018;-63
2024/03/26 00:28:02;;;;;;;8.00;3.30;;;5.70;99.90;;;;;;7372461;19;20129;-63
2024/03/26 00:30:28;;;;;;;5.68;3.05;;;5.70;99.90;;;;;;7372559;19;20018;-63
2024/03/26 00:32:54;;;;;;;12.60;3.53;;;5.70;99.90;;;;;;7369428;19;20010;-63
2024/03/26 00:35:20;;;;;;;8.60;2.90;;;5.70;99.90;;;;;;7375103;19;20041;-62
2024/03/26 00:37:46;;;;;;;7.63;3.30;;;5.60;99.90;;;;;;7372851;19;20026;-58
2024/03/26 00:40:15;;;;;;;9.02;3.33;;;5.70;99.90;;;;;;7373863;19;20023;-63
2024/03/26 00:42:41;;;;;;;8.15;3.20;;;5.60;99.90;;;;;;7378100;19;20508;-64
2024/03/26 00:45:08;;;;;;;6.97;3.20;;;5.60;99.90;;;;;;7376373;19;20022;-59
2024/03/26 00:47:34;;;;;;;6.75;3.42;;;5.60;99.90;;;;;;7375757;19;20680;-59
2024/03/26 00:50:00;;;;;;;13.05;3.17;;;5.60;99.90;;;;;;7376532;19;20049;-63
2024/03/26 00:52:26;;;;;;;7.93;2.75;;;5.60;99.90;;;;;;7369844;19;20026;-58
2024/03/26 00:54:52;;;;;;;7.20;3.28;;;5.50;99.90;;;;;;7376491;19;20583;-63
2024/03/26 00:57:18;;;;;;;7.80;3.25;;;5.50;99.90;;;;;;7372900;19;20026;-63
2024/03/26 00:59:44;;;;;;;10.20;3.28;;;5.50;99.90;;;;;;7373791;19;20057;-63
2024/03/26 01:02:10;;;;;;;7.80;3.25;;;5.50;99.90;;;;;;7374995;19;20023;-58
2024/03/26 01:04:37;;;;;;;9.15;3.20;;;5.40;99.90;;;;;;7373368;19;20027;-58
2024/03/26 01:07:03;;;;;;;8.15;2.95;;;5.40;99.90;;;;;;7374305;19;20022;-63
2024/03/26 01:09:29;;;;;;;9.15;3.25;;;5.40;99.90;;;;;;7373780;19;20029;-63
2024/03/26 01:11:55;;;;;;;8.05;3.35;;;5.30;99.90;;;;;;7372002;19;20011;-64
2024/03/26 01:14:22;;;;;;;9.27;3.25;;;5.30;99.90;;;;;;7374708;19;20025;-58
2024/03/26 01:16:48;;;;;;;10.90;3.22;;;5.30;99.90;;;;;;7367835;19;20019;-58
2024/03/26 01:19:15;;;;;;;8.30;2.92;;;5.20;99.90;;;;;;7370081;19;20033;-58
2024/03/26 01:21:41;;;;;;;10.25;3.80;;;5.30;99.90;;;;;;7364873;19;20821;-60
2024/03/26 01:24:07;;;;;;;11.45;3.72;;;5.20;99.90;;;;;;7372439;19;20051;-64
2024/03/26 01:26:33;;;;;;;11.63;4.03;;;5.10;99.90;;;;;;7368390;19;20021;-63
2024/03/26 01:29:00;;;;;;;8.98;3.83;;;5.20;99.90;;;;;;7372135;19;20040;-58
2024/03/26 01:31:26;;;;;;;9.25;4.63;;;5.10;99.90;;;;;;7368908;19;20018;-64
2024/03/26 01:33:52;;;;;;;9.38;3.92;;;5.10;99.90;;;;;;7373650;19;20504;-59
2024/03/26 01:36:18;;;;;;;10.90;3.85;;;5.00;99.90;;;;;;7368737;19;20708;-57
2024/03/26 01:38:45;;;;;;;8.40;3.92;;;5.00;99.90;;;;;;7373361;19;20014;-63
2024/03/26 01:41:11;;;;;;;10.30;3.70;;;4.90;99.90;;;;;;7368090;19;20019;-58
2024/03/26 01:43:37;;;;;;;10.50;3.83;;;5.00;99.90;;;;;;7371256;19;20023;-63
2024/03/26 01:46:04;;;;;;;9.88;3.92;;;4.90;99.90;;;;;;7371960;19;20018;-64
2024/03/26 01:48:30;;;;;;;6.00;3.17;;;4.90;99.90;;;;;;7367552;19;20110;-63
2024/03/26 01:50:57;;;;;;;8.98;3.70;;;4.90;99.90;;;;;;7362797;19;20022;-58
2024/03/26 01:53:23;;;;;;;8.32;3.35;;;5.00;99.90;;;;;;7367071;19;20402;-63
2024/03/26 01:55:50;;;;;;;8.88;3.17;;;5.00;99.90;;;;;;7362811;19;20111;-58
2024/03/26 01:58:17;;;;;;;8.30;3.70;;;5.00;99.90;;;;;;7364903;19;20044;-57
2024/03/26 02:00:46;;;;;;;7.63;3.40;;;5.00;99.90;;;;;;7362686;19;20101;-57
2024/03/26 02:03:12;;;;;;;8.20;3.60;;;5.00;99.90;;;;;;7368846;19;20038;-58
2024/03/26 02:05:38;;;;;;;9.02;4.03;;;5.00;99.90;;;;;;7363046;19;20744;-58
2024/03/26 02:08:05;;;;;;;9.98;3.75;;;5.00;99.90;;;;;;7369519;19;20027;-57
2024/03/26 02:10:33;;;;;;;8.18;3.72;;;5.00;99.90;;;;;;7367727;19;20022;-63
2024/03/26 02:12:59;;;;;;;7.30;3.60;;;5.00;99.90;;;;;;7367896;19;20018;-63
2024/03/26 02:15:26;;;;;;;7.68;3.67;;;5.00;99.90;;;;;;7365882;19;20040;-63
2024/03/26 02:17:52;;;;;;;7.97;3.70;;;4.90;99.90;;;;;;7360280;19;20023;-63
2024/03/26 02:20:23;;;;;;;10.15;3.80;;;4.90;99.90;;;;;;7366416;19;20604;-64
2024/03/26 02:22:55;;;;;;;7.65;4.53;;;4.90;99.90;;;;;;7362904;19;20497;-64
2024/03/26 02:25:22;;;;;;;11.07;4.05;;;4.90;99.90;;;;;;7364625;19;20025;-63
2024/03/26 02:27:51;;;;;;;6.75;3.78;;;4.90;99.90;;;;;;7364742;19;20030;-63
2024/03/26 02:30:20;;;;;;;10.23;4.10;;;4.90;99.90;;;;;;7367715;19;20030;-58
2024/03/26 02:32:47;;;;;;;12.73;4.20;;;4.90;99.90;;;;;;7368095;19;21115;-63
2024/03/26 02:35:16;;;;;;;10.10;4.00;;;4.90;99.90;;;;;;7366055;19;20025;-64
2024/03/26 02:37:42;;;;;;;11.73;3.90;;;4.90;99.90;;;;;;7367375;19;20487;-62
2024/03/26 02:40:09;;;;;;;7.80;3.72;;;4.90;99.90;;;;;;7369224;19;20106;-58
2024/03/26 02:42:35;;;;;;;8.50;4.10;;;4.90;99.90;;;;;;7373773;19;20819;-58
2024/03/26 02:45:02;;;;;;;8.05;3.63;;;4.80;99.90;;;;;;7368942;19;20018;-62
2024/03/26 02:47:28;;;;;;;7.15;3.63;;;4.80;99.90;;;;;;7369345;19;20043;-63
2024/03/26 02:49:54;;;;;;;10.82;4.35;;;4.80;99.90;;;;;;7368020;19;20027;-58
2024/03/26 02:52:20;;;;;;;9.10;3.90;;;4.80;99.90;;;;;;7369380;19;20057;-63
2024/03/26 02:54:46;;;;;;;10.57;3.88;;;4.80;99.90;;;;;;7369049;19;20022;-58
2024/03/26 02:57:12;;;;;;;10.75;4.32;;;4.90;99.90;;;;;;7371664;19;20744;-65
2024/03/26 02:59:38;;;;;;;9.38;3.97;;;4.90;99.90;;;;;;7371061;19;20094;-59
2024/03/26 03:02:05;;;;;;;8.48;4.15;;;4.90;99.90;;;;;;7374411;19;20886;-63
2024/03/26 03:04:31;;;;;;;11.73;4.00;;;4.90;99.90;;;;;;7368462;19;20018;-58
2024/03/26 03:06:57;;;;;;;8.27;3.67;;;4.90;99.90;;;;;;7372442;19;20019;-58
2024/03/26 03:09:23;;;;;;;8.60;4.25;;;4.80;99.90;;;;;;7372708;19;20423;-58
2024/03/26 03:11:49;;;;;;;9.13;3.58;;;4.80;99.90;;;;;;7372779;19;20022;-62
2024/03/26 03:14:16;;;;;;;11.30;3.80;;;4.90;99.90;;;;;;7368176;19;20015;-63
2024/03/26 03:16:42;;;;;;;5.95;3.45;;;4.80;99.90;;;;;;7369055;19;20655;-63
2024/03/26 03:19:09;;;;;;;11.00;4.50;;;4.80;99.90;;;;;;7368472;19;20029;-63
2024/03/26 03:21:35;;;;;;;7.82;4.40;;;4.90;99.90;;;;;;7369332;19;20019;-63
2024/03/26 03:24:01;;;;;;;7.05;3.58;;;4.80;99.90;;;;;;7368442;19;20114;-63
2024/03/26 03:26:27;;;;;;;9.98;4.00;;;4.80;99.90;;;;;;7371631;19;20659;-58
2024/03/26 03:28:53;;;;;;;9.13;4.60;;;4.80;99.90;;;;;;7368165;19;20021;-63
2024/03/26 03:31:19;;;;;;;7.55;3.50;;;4.90;99.90;;;;;;7372352;19;20500;-58
2024/03/26 03:33:45;;;;;;;14.45;5.13;;;4.90;99.90;;;;;;7364797;19;20018;-58
2024/03/26 03:36:12;;;;;;;9.88;3.97;;;4.90;99.90;;;;;;7369710;19;20031;-63
2024/03/26 03:38:38;;;;;;;10.30;4.07;;;4.80;99.90;;;;;;7371635;19;20034;-58
2024/03/26 03:41:04;;;;;;;7.53;3.95;;;4.90;99.90;;;;;;7368445;19;20014;-63
2024/03/26 03:43:30;;;;;;;9.70;4.40;;;4.90;99.90;;;;;;7368436;19;20383;-63
2024/03/26 03:45:57;;;;;;;9.57;4.07;;;4.80;99.90;;;;;;7373242;19;20030;-58
2024/03/26 03:48:23;;;;;;;7.00;4.05;;;4.80;99.90;;;;;;7367134;19;20022;-63
2024/03/26 03:50:49;;;;;;;8.02;4.03;;;4.80;99.90;;;;;;7373455;19;20029;-63
2024/03/26 03:53:16;;;;;;;7.97;3.92;;;4.80;99.90;;;;;;7378921;19;20026;-58
2024/03/26 03:55:42;;;;;;;10.85;4.00;;;4.80;99.90;;;;;;7378912;19;20043;-63
2024/03/26 03:58:10;;;;;;;9.43;4.20;;;4.80;99.90;;;;;;7378369;19;20042;-58
2024/03/26 04:00:39;;;;;;;9.57;4.25;;;4.80;99.90;;;;;;7375881;19;20577;-63
2024/03/26 04:03:05;;;;;;;7.30;4.35;;;4.80;99.90;;;;;;7378324;19;20070;-64
2024/03/26 04:05:35;;;;;;;9.30;4.25;;;4.80;99.90;;;;;;7376376;19;20027;-63
2024/03/26 04:08:01;;;;;;;10.10;4.50;;;4.80;99.90;;;;;;7382226;19;20035;-58
2024/03/26 04:10:27;;;;;;;11.35;4.03;;;4.80;99.90;;;;;;7377852;19;20035;-58
2024/03/26 04:12:53;;;;;;;10.15;4.70;;;4.80;99.90;;;;;;7380328;19;20054;-58
2024/03/26 04:15:19;;;;;;;12.07;4.25;;;4.80;99.90;;;;;;7378239;19;20015;-58
2024/03/26 04:17:50;;;;;;;13.25;5.10;;;4.80;99.90;;;;;;7375174;19;20576;-58
2024/03/26 04:20:17;;;;;;;10.85;4.43;;;4.80;99.90;;;;;;7371064;19;20492;-58
2024/03/26 04:22:46;;;;;;;7.32;3.80;;;4.80;99.90;;;;;;7372745;19;20054;-63
2024/03/26 04:25:14;;;;;;;9.35;3.92;;;4.90;99.90;;;;;;7375932;19;20877;-58
2024/03/26 04:27:40;;;;;;;9.00;4.28;;;4.80;99.90;;;;;;7372184;19;20410;-63
2024/03/26 04:30:07;;;;;;;6.25;2.95;;;4.80;99.90;;;;;;7374981;19;20044;-63
2024/03/26 04:32:36;;;;;;;9.73;4.40;;;4.80;99.90;;;;;;7372734;19;20018;-62
2024/03/26 04:35:02;;;;;;;7.00;3.25;;;4.80;99.90;;;;;;7373411;19;20044;-58
2024/03/26 04:37:28;;;;;;;8.02;3.95;;;4.80;99.90;;;;;;7373773;19;20026;-63
2024/03/26 04:39:54;;;;;;;5.60;3.55;;;4.70;99.90;;;;;;7368899;19;20573;-63
2024/03/26 04:42:20;;;;;;;9.57;3.70;;;4.80;99.90;;;;;;7373822;19;20018;-62
2024/03/26 04:44:47;;;;;;;9.23;4.13;;;4.70;99.90;;;;;;7371361;19;20094;-62
2024/03/26 04:47:13;;;;;;;8.57;3.53;;;4.70;99.90;;;;;;7374070;19;20055;-58
2024/03/26 04:49:39;;;;;;;8.43;3.90;;;4.70;99.90;;;;;;7372974;19;20023;-58
2024/03/26 04:52:06;;;;;;;9.00;3.47;;;4.60;99.90;;;;;;7374368;19;20022;-62
2024/03/26 04:54:33;;;;;;;9.60;4.38;;;4.70;99.90;;;;;;7373211;19;20616;-63
2024/03/26 04:56:59;;;;;;;6.90;4.10;;;4.60;99.90;;;;;;7371061;19;20010;-58
2024/03/26 04:59:25;;;;;;;10.57;4.20;;;4.60;99.90;;;;;;7375468;19;20050;-63
2024/03/26 05:01:52;;;;;;;6.82;3.63;;;4.60;99.90;;;;;;7369093;19;20045;-58
2024/03/26 05:04:18;;;;;;;8.55;3.60;;;4.60;99.90;;;;;;7373330;19;20026;-63
2024/03/26 05:06:44;;;;;;;10.88;3.78;;;4.60;99.90;;;;;;7371879;19;20733;-58
2024/03/26 05:09:10;;;;;;;7.85;4.30;;;4.60;99.90;;;;;;7373306;19;20018;-67
2024/03/26 05:11:36;;;;;;;11.70;4.30;;;4.50;99.90;;;;;;7370744;19;20058;-63
2024/03/26 05:14:03;;;;;;;8.70;3.90;;;4.50;99.90;;;;;;7374674;19;20058;-63
2024/03/26 05:16:32;;;;;;;8.02;3.85;;;4.50;99.90;;;;;;7371171;19;20022;-57
2024/03/26 05:18:58;;;;;;;5.70;3.05;;;4.40;99.90;;;;;;7372690;19;20011;-62
2024/03/26 05:21:25;;;;;;;8.25;4.20;;;4.40;99.90;;;;;;7370098;19;20014;-58
2024/03/26 05:23:51;;;;;;;11.00;4.40;;;4.40;99.90;;;;;;7372868;19;20136;-59
2024/03/26 05:26:17;;;;;;;9.15;4.00;;;4.40;99.90;;;;;;7369505;19;20015;-64
2024/03/26 05:28:43;;;;;;;6.97;3.80;;;4.40;99.90;;;;;;7368048;19;20018;-65
2024/03/26 05:31:20;;;;;;;10.60;3.92;;;4.40;99.90;;;;;;7370695;19;20087;-64
2024/03/26 05:33:48;;;;;;;9.98;4.15;;;4.30;99.90;;;;;;7372266;19;20018;-59
2024/03/26 05:36:15;;;;;;;8.68;4.70;;;4.30;99.90;;;;;;7373492;19;20033;-59
2024/03/26 05:38:42;;;;;;;7.53;2.85;;;4.30;99.90;;;;;;7372105;19;20022;-59
2024/03/26 05:41:09;;;;;;;7.75;4.00;;;4.40;99.90;;;;;;7373049;19;20245;-65
2024/03/26 05:43:35;;;;;;;9.88;4.00;;;4.40;99.90;;;;;;7372725;19;20517;-60
2024/03/26 05:46:01;;;;;;;6.15;3.60;;;4.40;99.90;;;;;;7373482;19;20018;-58
2024/03/26 05:48:27;;;;;;;6.93;3.45;;;4.40;99.90;;;;;;7372444;19;20027;-57
2024/03/26 05:50:54;;;;;;;8.02;4.47;;;4.40;99.90;;;;;;7369410;19;20014;-64
2024/03/26 05:53:20;;;;;;;8.43;3.45;;;4.40;99.90;;;;;;7367429;19;20032;-61
2024/03/26 05:55:46;;;;;;;5.78;3.55;;;4.40;99.90;;;;;;7371025;19;20022;-59
2024/03/26 05:58:13;;;;;;;9.68;4.53;;;4.50;99.90;;;;;;7373189;19;20033;-60
2024/03/26 06:00:39;;;;;;;6.25;3.45;;;4.50;99.90;;;;;;7371538;19;20393;-59
2024/03/26 06:03:06;;;;;;;8.07;3.58;;;4.50;99.90;;;;;;7373651;19;20038;-59
2024/03/26 06:05:32;;;;;;;11.50;3.85;;;4.50;99.90;;;;;;7369662;19;20025;-61
2024/03/26 06:07:58;;;;;;;9.75;4.50;;;4.60;99.90;;;;;;7374289;19;20094;-61
2024/03/26 06:10:24;;;;;;;6.57;3.60;;;4.60;99.90;;;;;;7371798;19;20052;-64
2024/03/26 06:12:50;;;;;;;10.02;3.67;;;4.60;99.90;;;;;;7370495;19;20772;-63
2024/03/26 06:15:16;;;;;;;9.40;3.75;;;4.70;99.90;;;;;;7372033;19;20023;-64
2024/03/26 06:17:43;;;;;;;6.88;3.30;;;4.70;99.90;;;;;;7371557;19;20748;-59
2024/03/26 06:20:10;;;;;;;10.40;5.38;;;4.80;99.90;;;;;;7372547;19;20429;-64
2024/03/26 06:22:36;;;;;;;5.32;2.70;;;4.80;99.90;;;;;;7366286;19;20018;-64
2024/03/26 06:25:03;;;;;;;6.00;3.17;;;4.80;99.90;;;;;;7366706;19;20018;-64
2024/03/26 06:27:29;;;;;;;10.20;4.20;;;4.90;99.90;;;;;;7372057;19;20953;-64
2024/03/26 06:29:55;;;;;;;7.45;3.58;;;4.90;99.90;;;;;;7372643;19;20026;-59
2024/03/26 06:32:22;;;;;;;9.45;4.18;;;5.00;99.90;;;;;;7370711;19;20050;-63
2024/03/26 06:34:48;;;;;;;6.60;3.15;;;5.10;99.90;;;;;;7369886;19;20026;-64
2024/03/26 06:37:14;;;;;;;10.65;4.15;;;5.10;99.90;;;;;;7371186;19;20090;-59
2024/03/26 06:39:40;;;;;;;5.05;3.05;;;5.20;99.90;;;;;;7364223;19;20019;-64
2024/03/26 06:42:07;;;;;;;7.65;3.42;;;5.30;99.90;;;;;;7371339;19;20018;-59
2024/03/26 06:44:33;;;;;;;9.05;3.13;;;5.40;99.90;;;;;;7370945;19;20018;-59
2024/03/26 06:46:59;;;;;;;13.32;5.15;;;5.50;99.90;;;;;;7372854;19;20019;-59
2024/03/26 06:49:25;;;;;;;5.68;3.00;;;5.60;99.90;;;;;;7371362;19;20641;-59
2024/03/26 06:51:51;;;;;;;8.05;3.72;;;5.80;99.90;;;;;;7368609;19;21220;-59
2024/03/26 06:54:18;;;;;;;5.35;3.40;;;6.00;99.90;;;;;;7370232;19;20019;-60
2024/03/26 06:56:44;;;;;;;6.38;3.25;;;6.20;99.90;;;;;;7368339;19;20469;-61
2024/03/26 06:59:10;;;;;;;7.55;3.70;;;6.30;99.90;;;;;;7369748;19;20018;-64
2024/03/26 07:01:36;;;;;;;5.43;2.92;;;6.60;99.90;;;;;;7368047;19;20388;-60
2024/03/26 07:04:03;;;;;;;8.30;3.60;;;6.60;99.90;;;;;;7369914;19;20022;-65
2024/03/26 07:06:30;;;;;;;7.35;3.15;;;6.80;99.90;;;;;;7370340;19;20498;-60
2024/03/26 07:08:57;;;;;;;7.43;3.00;;;7.00;99.90;;;;;;7369858;19;20025;-60
2024/03/26 07:11:24;;;;;;;6.55;2.83;;;7.20;99.90;;;;;;7370567;19;20493;-60
2024/03/26 07:13:50;;;;;;;6.80;3.10;;;7.40;99.90;;;;;;7371330;19;20021;-60
2024/03/26 07:16:16;;;;;;;7.43;3.33;;;7.70;99.90;;;;;;7370924;19;20663;-65
2024/03/26 07:18:42;;;;;;;8.73;3.85;;;7.90;99.90;;;;;;7372028;19;20026;-61
2024/03/26 07:21:09;;;;;;;5.78;2.72;;;8.10;99.90;;;;;;7369790;19;20010;-60
2024/03/26 07:23:35;;;;;;;8.75;3.15;;;8.20;99.90;;;;;;7371163;19;20026;-60
2024/03/26 07:26:03;;;;;;;8.38;3.42;;;8.50;99.90;;;;;;7368467;19;20014;-64
2024/03/26 07:28:29;;;;;;;5.15;3.05;;;8.40;99.90;;;;;;7371107;19;20049;-60
2024/03/26 07:30:55;;;;;;;6.55;2.72;;;8.70;99.90;;;;;;7367994;19;21038;-60
2024/03/26 07:33:22;;;;;;;8.30;3.25;;;8.70;99.90;;;;;;7374255;19;20021;-60
2024/03/26 07:35:48;;;;;;;5.93;3.00;;;8.90;99.90;;;;;;7368070;19;20041;-61
2024/03/26 07:38:14;;;;;;;6.97;3.33;;;9.10;99.90;;;;;;7368245;19;20077;-61
2024/03/26 07:40:42;;;;;;;8.20;3.78;;;9.20;99.90;;;;;;7365832;19;20025;-60
2024/03/26 07:43:09;;;;;;;8.18;3.00;;;9.50;99.90;;;;;;7366064;19;20018;-61
2024/03/26 07:45:35;;;;;;;5.88;2.95;;;9.60;99.90;;;;;;7365536;19;20015;-61
2024/03/26 07:48:02;;;;;;;5.88;3.45;;;9.60;99.90;;;;;;7367690;19;20054;-60
2024/03/26 07:50:29;;;;;;;9.85;3.88;;;9.80;99.90;;;;;;7366396;19;20025;-60
2024/03/26 07:52:55;;;;;;;7.55;3.05;;;9.90;99.90;;;;;;7362031;19;20026;-61
2024/03/26 07:55:21;;;;;;;9.07;3.40;;;10.00;99.90;;;;;;7361655;19;20022;-61
2024/03/26 07:57:47;;;;;;;6.97;3.03;;;10.00;99.90;;;;;;7365594;19;20030;-60
2024/03/26 08:00:14;;;;;;;5.47;3.03;;;10.10;99.90;;;;;;7363705;19;20026;-60
2024/03/26 08:02:43;;;;;;;4.57;2.75;;;10.00;99.90;;;;;;7363178;19;20062;-60
2024/03/26 08:05:09;;;;;;;5.60;3.22;;;10.10;99.90;;;;;;7360554;19;21366;-60
2024/03/26 08:07:35;;;;;;;5.68;2.90;;;10.10;99.90;;;;;;7362465;19;20720;-60
2024/03/26 08:10:02;;;;;;;6.85;3.38;;;10.40;99.90;;;;;;7364371;19;20367;-60
2024/03/26 08:12:28;;;;;;;5.93;2.88;;;10.40;99.90;;;;;;7367261;19;20030;-60
2024/03/26 08:14:55;;;;;;;6.25;3.47;;;10.60;99.90;;;;;;7357680;19;20048;-60
2024/03/26 08:17:22;;;;;;;5.35;2.95;;;10.70;99.90;;;;;;7363113;19;20019;-61
2024/03/26 08:19:48;;;;;;;7.47;3.03;;;10.70;99.90;;;;;;7359402;19;20018;-60
2024/03/26 08:22:15;;;;;;;4.15;3.13;;;10.70;98.70;;;;;;7364133;19;20114;-65
2024/03/26 08:24:41;;;;;;;8.43;3.88;;;10.80;99.40;;;;;;7360444;19;20018;-65
2024/03/26 08:27:07;;;;;;;5.90;3.38;;;11.00;99.60;;;;;;7366125;19;20023;-60
2024/03/26 08:29:33;;;;;;;7.00;2.88;;;11.20;99.80;;;;;;7356858;19;20026;-65
2024/03/26 08:32:02;;;;;;;5.80;2.97;;;11.50;99.50;;;;;;7370526;19;20019;-65
2024/03/26 08:34:28;;;;;;;7.90;3.13;;;11.60;98.50;;;;;;7362258;19;20026;-65
2024/03/26 08:36:55;;;;;;;6.85;3.17;;;11.80;97.60;;;;;;7375310;19;20019;-65
2024/03/26 08:39:22;;;;;;;5.07;2.72;;;11.80;96.70;;;;;;7371328;19;20100;-60
2024/03/26 08:41:48;;;;;;;5.72;2.90;;;11.60;96.30;;;;;;7366671;19;20696;-60
2024/03/26 08:44:16;;;;;;;9.65;3.45;;;11.80;97.40;;;;;;7372991;19;20053;-60
2024/03/26 08:46:42;;;;;;;7.80;3.00;;;11.90;97.70;;;;;;7374195;19;20018;-60
2024/03/26 08:49:08;;;;;;;4.93;2.55;;;11.70;96.90;;;;;;7374133;19;20922;-60
2024/03/26 08:51:35;;;;;;;40.85;31.98;;;11.70;96.40;;;;;;7372100;19;20033;-63
2024/03/26 08:54:02;;;;;;;7.43;3.20;;;12.20;98.50;;;;;;7375300;19;20018;-61
2024/03/26 08:56:28;;;;;;;6.25;3.05;;;12.40;97.50;;;;;;7372842;19;20021;-66
2024/03/26 08:58:54;;;;;;;7.88;3.65;;;12.80;95.20;;;;;;7370315;19;20015;-61
2024/03/26 09:01:21;;;;;;;7.18;3.10;;;13.50;95.20;;;;;;7372114;19;20029;-61
2024/03/26 09:03:47;;;;;;;4.43;2.72;;;13.80;92.70;;;;;;7369282;19;20496;-66
2024/03/26 09:06:13;;;;;;;6.60;2.83;;;14.00;90.10;;;;;;7373843;19;20116;-66
2024/03/26 09:08:39;;;;;;;4.80;2.83;;;14.20;90.90;;;;;;7370941;19;20030;-66
2024/03/26 09:11:06;;;;;;;4.93;2.83;;;14.30;89.80;;;;;;7373963;19;20019;-66
2024/03/26 09:13:35;;;;;;;6.05;3.00;;;14.30;89.80;;;;;;7371654;19;20014;-67
2024/03/26 09:16:01;;;;;;;4.90;2.83;;;14.50;89.00;;;;;;7370489;19;20044;-66
2024/03/26 09:18:28;;;;;;;5.20;3.03;;;14.80;89.00;;;;;;7372795;19;20033;-65
2024/03/26 09:20:54;;;;;;;5.28;3.15;;;14.80;86.00;;;;;;7367835;19;20022;-61
2024/03/26 09:23:21;;;;;;;6.95;3.38;;;15.00;86.50;;;;;;7376224;19;20046;-66
2024/03/26 09:25:47;;;;;;;6.55;2.85;;;14.90;85.20;;;;;;7367385;19;20018;-66
2024/03/26 09:28:14;;;;;;;5.32;3.05;;;14.50;82.30;;;;;;7372217;19;20033;-61
2024/03/26 09:30:40;;;;;;;6.07;3.38;;;14.40;83.00;;;;;;7368850;19;20050;-61
2024/03/26 09:33:06;;;;;;;5.15;2.83;;;14.40;83.80;;;;;;7372236;19;20018;-61
2024/03/26 09:35:32;;;;;;;7.43;2.72;;;14.20;82.70;;;;;;7371190;19;20026;-61
2024/03/26 09:37:59;;;;;;;5.15;3.00;;;14.50;82.10;;;;;;7372016;19;20098;-60
2024/03/26 09:40:25;;;;;;;4.60;2.90;;;14.30;80.60;;;;;;7371337;19;20019;-60
2024/03/26 09:42:52;;;;;;;4.38;2.53;;;14.60;80.40;;;;;;7370177;19;20014;-60
2024/03/26 09:45:19;;;;;;;6.32;2.80;;;14.60;78.40;;;;;;7376544;19;20022;-65
2024/03/26 09:47:48;;;;;;;4.70;2.53;;;14.40;79.50;;;;;;7362470;19;20027;-60
2024/03/26 09:50:14;;;;;;;4.85;2.70;;;14.40;82.50;;;;;;7369787;19;20034;-60
2024/03/26 09:52:44;;;;;;;6.25;2.97;;;14.70;81.40;;;;;;7372122;19;20043;-63
2024/03/26 09:55:13;;;;;;;5.97;3.17;;;14.60;79.50;;;;;;7369518;19;21667;-66
2024/03/26 09:57:39;;;;;;;6.47;3.22;;;15.20;80.10;;;;;;7370648;19;20340;-66
2024/03/26 10:00:06;;;;;;;8.02;2.75;;;15.90;80.80;;;;;;7369895;19;20492;-61
2024/03/26 10:02:33;;;;;;;5.95;3.15;;;16.10;78.50;;;;;;7370343;19;20019;-60
2024/03/26 10:04:59;;;;;;;3.88;2.78;;;15.70;76.00;;;;;;7373177;19;20011;-65
2024/03/26 10:07:26;;;;;;;6.80;2.45;;;15.80;77.20;;;;;;7374815;19;20036;-60
2024/03/26 10:09:52;;;;;;;4.80;2.65;;;15.40;75.90;;;;;;7370766;19;20458;-65
2024/03/26 10:12:18;;;;;;;4.65;2.47;;;15.30;76.80;;;;;;7366313;19;20052;-65
2024/03/26 10:14:44;;;;;;;3.72;2.67;;;15.30;77.50;;;;;;7373069;19;20491;-65
2024/03/26 10:17:11;;;;;;;7.30;2.75;;;14.90;74.20;;;;;;7370244;19;20793;-61
2024/03/26 10:19:37;;;;;;;6.15;2.83;;;14.70;76.30;;;;;;7368466;19;20492;-66
2024/03/26 10:22:03;;;;;;;4.65;2.55;;;14.60;75.20;;;;;;7369344;19;20098;-60
2024/03/26 10:24:33;;;;;;;7.55;2.83;;;15.00;74.40;;;;;;7369184;19;20724;-67
2024/03/26 10:26:59;;;;;;;6.68;3.03;;;15.30;72.40;;;;;;7372385;19;20397;-64
2024/03/26 10:29:25;;;;;;;7.72;3.42;;;15.70;71.60;;;;;;7363616;19;20735;-66
2024/03/26 10:31:53;;;;;;;6.55;2.58;;;16.00;72.30;;;;;;7366432;19;20055;-66
2024/03/26 10:34:25;;;;;;;4.15;2.67;;;16.20;72.90;;;;;;7373428;19;20468;-66
2024/03/26 10:36:55;;;;;;;;;;;16.30;71.20;;;;;;7366011;19;20824;-61
2024/03/26 10:39:25;;;;;;;4.43;3.08;;;16.50;70.40;;;;;;7369521;19;19950;-66
2024/03/26 10:41:52;;;;;;;4.93;2.47;;;17.10;73.20;;;;;;7365151;19;20030;-66
2024/03/26 10:44:19;;;;;;;6.32;2.60;;;16.90;68.30;;;;;;7370878;19;20024;-61
2024/03/26 10:46:46;;;;;;;7.47;2.67;;;16.60;67.60;;;;;;7369561;19;20018;-61
2024/03/26 10:49:14;;;;;;;4.93;2.60;;;16.50;68.50;;;;;;7370664;19;20375;-60
2024/03/26 10:51:42;;;;;;;6.05;3.03;;;16.10;69.00;;;;;;7369765;19;20022;-66
2024/03/26 10:54:08;;;;;;;8.77;4.05;;;15.60;69.80;;;;;;7371313;19;20022;-66
2024/03/26 10:56:35;;;;;;;6.53;3.05;;;15.60;70.90;;;;;;7371727;19;20113;-67
2024/03/26 10:59:02;;;;;;;6.18;2.78;;;15.60;73.00;;;;;;7370003;19;20037;-65
2024/03/26 11:01:30;;;;;;;5.65;3.72;;;15.70;71.70;;;;;;7366930;19;20045;-61
2024/03/26 11:03:58;;;;;;;5.82;3.15;;;15.70;71.40;;;;;;7371395;19;20376;-60
2024/03/26 11:06:27;;;;;;;5.65;2.92;;;15.70;68.60;;;;;;7367551;19;20031;-60
2024/03/26 11:09:03;;;;;;;6.10;3.35;;;15.80;70.70;;;;;;7365777;19;20063;-64
2024/03/26 11:11:34;;;;;;;5.65;3.30;;;16.00;69.60;;;;;;7361717;19;20085;-60
2024/03/26 11:14:03;;;;;;;7.57;3.42;;;16.00;72.40;;;;;;7370275;19;20375;-60
2024/03/26 11:16:33;;;;;;;5.80;3.30;;;16.10;71.40;;;;;;7365862;19;20029;-65
2024/03/26 11:19:21;;;;;;;5.30;3.22;;;15.80;70.10;;;;;;7367839;19;20014;-65
2024/03/26 11:21:49;;;;;;;5.15;2.72;;;15.30;69.60;;;;;;7363520;19;20053;-65
2024/03/26 11:24:23;;;;;;;7.05;3.10;;;15.20;70.70;;;;;;7365717;19;20035;-65
2024/03/26 11:26:51;;;;;;;6.55;3.08;;;15.10;70.50;;;;;;7357510;19;20816;-65
2024/03/26 11:29:18;;;;;;;7.05;3.30;;;14.80;70.50;;;;;;7363800;19;20069;-65
2024/03/26 11:31:45;;;;;;;5.95;3.10;;;14.80;72.40;;;;;;7365800;19;20029;-63
2024/03/26 11:34:14;;;;;;;5.47;2.75;;;14.70;71.90;;;;;;7363897;19;20026;-65
2024/03/26 11:36:41;;;;;;;6.32;3.17;;;14.50;74.80;;;;;;7363079;19;20025;-60
2024/03/26 11:39:15;;;;;;;5.63;2.80;;;14.50;74.80;;;;;;7365634;19;20112;-60
2024/03/26 11:41:41;;;;;;;5.38;3.35;;;14.30;75.00;;;;;;7363357;19;20022;-60
2024/03/26 11:44:08;;;;;;;6.55;3.55;;;14.50;77.30;;;;;;7363801;19;20032;-60
2024/03/26 11:46:34;;;;;;;5.47;3.10;;;14.70;76.00;;;;;;7369243;19;20018;-65
2024/03/26 11:49:04;;;;;;;5.53;3.00;;;14.70;76.20;;;;;;7360553;19;20027;-66
2024/03/26 11:51:31;;;;;;;6.35;3.35;;;14.40;75.90;;;;;;7367761;19;20078;-60
2024/03/26 11:53:57;;;;;;;6.38;3.40;;;14.20;77.30;;;;;;7362324;19;20014;-60
2024/03/26 11:56:23;;;;;;;4.45;2.85;;;14.00;78.20;;;;;;7363422;19;20110;-65
2024/03/26 11:58:50;;;;;;;6.03;3.20;;;13.80;77.20;;;;;;7364208;19;20038;-65
2024/03/26 12:01:20;;;;;;;6.55;3.42;;;13.80;78.50;;;;;;7363356;19;21223;-65
2024/03/26 12:03:54;;;;;;;5.47;4.03;;;14.00;78.50;;;;;;7364321;19;20023;-65
2024/03/26 12:06:25;;;;;;;5.68;3.60;;;13.90;80.60;;;;;;7362209;19;20014;-65
2024/03/26 12:08:53;;;;;;;6.50;3.97;;;14.00;79.70;;;;;;7367456;19;20018;-64
2024/03/26 12:11:20;;;;;;;6.22;3.35;;;13.80;80.40;;;;;;7368157;19;20018;-65
2024/03/26 12:13:46;;;;;;;5.40;3.33;;;13.80;79.60;;;;;;7368657;19;20022;-65
2024/03/26 12:16:40;;;;;;;5.00;3.42;;;13.90;79.70;;;;;;7374543;19;20015;-64
2024/03/26 12:19:07;;;;;;;5.75;3.45;;;13.90;80.70;;;;;;7373992;19;20033;-63
2024/03/26 12:21:34;;;;;;;7.00;3.90;;;14.20;83.90;;;;;;7373056;19;20014;-64
2024/03/26 12:24:00;;;;;;;7.88;3.20;;;14.00;81.70;;;;;;7375750;19;20102;-59
2024/03/26 12:26:27;;;;;;;5.60;2.70;;;14.10;82.20;;;;;;7373177;19;20018;-59
2024/03/26 12:28:54;;;;;;;8.20;3.35;;;14.10;78.60;;;;;;7369523;19;20025;-59
2024/03/26 12:31:22;;;;;;;6.60;3.65;;;14.20;80.10;;;;;;7361239;19;20800;-60
2024/03/26 12:33:48;;;;;;;5.05;3.42;;;14.30;78.70;;;;;;7369318;19;20082;-59
2024/03/26 12:36:14;;;;;;;6.30;3.40;;;14.80;79.80;;;;;;7370796;19;20018;-64
2024/03/26 12:38:41;;;;;;;5.68;3.40;;;14.70;78.60;;;;;;7369984;19;20486;-60
2024/03/26 12:41:09;;;;;;;7.57;4.18;;;14.60;79.90;;;;;;7367753;19;20065;-59
2024/03/26 12:43:35;;;;;;;5.28;2.95;;;14.50;79.80;;;;;;7370090;19;20022;-65
2024/03/26 12:46:02;;;;;;;5.57;3.33;;;14.40;79.20;;;;;;7375093;19;20022;-65
2024/03/26 12:48:28;;;;;;;6.53;3.53;;;14.30;80.80;;;;;;7370872;19;20390;-64
2024/03/26 12:51:03;;;;;;;5.05;3.20;;;14.40;82.00;;;;;;7375362;19;20026;-64